createdAt,value
2022-08-14T00:02:01.637Z,67.50
2022-08-14T00:04:34.644Z,67.30
2022-08-14T00:07:14.158Z,67.39
2022-08-14T00:10:01.963Z,67.64
2022-08-14T00:12:33.739Z,67.38
2022-08-14T00:15:13.283Z,67.43
2022-08-14T00:17:47.152Z,67.42
2022-08-14T00:20:23.888Z,67.55
2022-08-14T00:22:57.860Z,67.65
2022-08-14T00:25:41.463Z,67.52
2022-08-14T00:28:15.339Z,67.40
2022-08-14T00:30:46.041Z,67.67
2022-08-14T00:33:17.261Z,67.56
2022-08-14T00:36:33.803Z,67.34
2022-08-14T00:38:34.907Z,67.26
2022-08-14T00:41:04.630Z,67.63
2022-08-14T00:43:32.800Z,67.70
2022-08-14T00:46:05.301Z,67.22
2022-08-14T00:48:38.631Z,67.21
2022-08-14T00:51:11.405Z,67.59
2022-08-14T00:53:40.117Z,67.42
2022-08-14T00:56:15.431Z,67.33
2022-08-14T00:58:45.166Z,67.24
2022-08-14T01:01:18.842Z,67.71
2022-08-14T01:03:52.822Z,67.60
2022-08-14T01:06:21.537Z,67.20
2022-08-14T01:08:51.114Z,67.53
2022-08-14T01:11:31.421Z,67.48
2022-08-14T01:14:00.872Z,67.49
2022-08-14T01:16:31.643Z,67.56
2022-08-14T01:19:19.831Z,67.06
2022-08-14T01:21:53.411Z,67.36
2022-08-14T01:24:30.227Z,67.09
2022-08-14T01:27:04.955Z,67.08
2022-08-14T01:29:58.521Z,67.22
2022-08-14T01:32:25.886Z,67.29
2022-08-14T01:35:19.829Z,67.18
2022-08-14T01:37:56.205Z,67.54
2022-08-14T01:40:36.224Z,67.50
2022-08-14T01:43:18.788Z,67.14
2022-08-14T01:45:57.883Z,67.47
2022-08-14T01:48:37.601Z,67.39
2022-08-14T01:51:20.038Z,67.46
2022-08-14T01:53:54.957Z,67.02
2022-08-14T01:56:37.456Z,67.32
2022-08-14T01:59:09.696Z,67.06
2022-08-14T02:01:41.763Z,67.35
2022-08-14T02:04:40.923Z,67.23
2022-08-14T02:06:59.614Z,67.18
2022-08-14T02:09:31.967Z,67.28
2022-08-14T02:11:59.984Z,66.89
2022-08-14T02:14:32.122Z,67.30
2022-08-14T02:17:01.307Z,67.31
2022-08-14T02:19:32.279Z,67.32
2022-08-14T02:22:03.497Z,67.37
2022-08-14T02:24:39.043Z,67.34
2022-08-14T02:28:25.153Z,67.18
2022-08-14T02:30:02.037Z,67.30
2022-08-14T02:32:36.525Z,67.00
2022-08-14T02:35:10.402Z,67.05
2022-08-14T02:37:48.073Z,66.89
2022-08-14T02:40:19.085Z,67.21
2022-08-14T02:42:54.727Z,66.90
2022-08-14T02:45:33.416Z,66.98
2022-08-14T02:48:10.130Z,66.98
2022-08-14T02:50:39.268Z,67.07
2022-08-14T02:53:07.605Z,67.21
2022-08-14T02:55:40.300Z,67.21
2022-08-14T02:58:08.646Z,66.96
2022-08-14T03:00:39.983Z,66.80
2022-08-14T03:03:08.804Z,67.06
2022-08-14T03:05:41.191Z,66.88
2022-08-14T03:08:11.138Z,66.97
2022-08-14T03:10:48.745Z,67.06
2022-08-14T03:13:19.240Z,67.09
2022-08-14T03:15:55.105Z,66.73
2022-08-14T03:18:31.372Z,67.01
2022-08-14T03:21:03.448Z,66.70
2022-08-14T03:23:37.769Z,67.10
2022-08-14T03:26:13.127Z,67.06
2022-08-14T03:28:48.668Z,66.64
2022-08-14T03:31:20.146Z,67.02
2022-08-14T03:33:51.837Z,67.02
2022-08-14T03:37:37.979Z,66.67
2022-08-14T03:39:22.717Z,66.81
2022-08-14T03:41:55.317Z,66.68
2022-08-14T03:45:27.809Z,66.72
2022-08-14T03:47:15.379Z,66.86
2022-08-14T03:49:44.791Z,66.74
2022-08-14T03:52:38.325Z,66.88
2022-08-14T03:55:08.180Z,66.63
2022-08-14T03:57:38.788Z,66.54
2022-08-14T04:00:40.252Z,66.66
2022-08-14T04:03:01.675Z,66.83
2022-08-14T04:05:38.134Z,66.53
2022-08-14T04:08:30.249Z,66.73
2022-08-14T04:11:01.007Z,66.59
2022-08-14T04:13:32.016Z,66.73
2022-08-14T04:16:05.123Z,66.93
2022-08-14T04:18:34.887Z,66.49
2022-08-14T04:21:04.009Z,66.64
2022-08-14T04:23:33.245Z,66.84
2022-08-14T04:26:03.114Z,66.93
2022-08-14T04:29:05.396Z,66.82
2022-08-14T04:31:24.831Z,66.80
2022-08-14T04:34:04.152Z,66.63
2022-08-14T04:36:53.714Z,66.63
2022-08-14T04:39:46.191Z,66.81
2022-08-14T04:42:32.703Z,67.19
2022-08-14T04:45:02.038Z,67.22
2022-08-14T04:47:53.683Z,67.25
2022-08-14T04:50:37.957Z,66.92
2022-08-14T04:53:11.028Z,67.04
2022-08-14T04:55:39.627Z,67.09
2022-08-14T04:58:21.714Z,67.21
2022-08-14T05:01:00.374Z,66.75
2022-08-14T05:03:31.479Z,67.08
2022-08-14T05:06:03.103Z,67.00
2022-08-14T05:08:50.707Z,67.04
2022-08-14T05:11:20.474Z,67.02
2022-08-14T05:16:39.045Z,66.78
2022-08-14T05:19:18.319Z,67.23
2022-08-14T05:22:00.933Z,66.96
2022-08-14T05:24:43.707Z,67.35
2022-08-14T05:27:11.703Z,67.00
2022-08-14T05:29:40.721Z,67.16
2022-08-14T05:32:12.652Z,67.03
2022-08-14T05:34:40.922Z,66.95
2022-08-14T05:37:15.466Z,67.32
2022-08-14T05:39:44.364Z,67.31
2022-08-14T05:42:22.357Z,66.99
2022-08-14T05:44:56.027Z,67.40
2022-08-14T05:47:28.618Z,67.05
2022-08-14T05:50:02.911Z,67.23
2022-08-14T05:52:38.408Z,67.57
2022-08-14T05:55:09.414Z,67.31
2022-08-14T05:57:47.573Z,67.25
2022-08-14T06:00:28.177Z,67.29
2022-08-14T06:02:58.519Z,67.41
2022-08-14T06:05:29.537Z,67.58
2022-08-14T06:07:58.605Z,67.42
2022-08-14T06:10:28.306Z,67.55
2022-08-14T06:12:57.972Z,67.45
2022-08-14T06:15:30.029Z,67.38
2022-08-14T06:18:01.780Z,67.60
2022-08-14T06:20:30.685Z,67.61
2022-08-14T06:22:59.181Z,67.57
2022-08-14T06:25:27.942Z,67.43
2022-08-14T06:27:58.090Z,67.79
2022-08-14T06:30:46.077Z,67.83
2022-08-14T06:33:18.353Z,67.77
2022-08-14T06:35:47.326Z,67.84
2022-08-14T06:38:19.697Z,67.82
2022-08-14T06:40:51.621Z,67.84
2022-08-14T06:43:28.347Z,67.94
2022-08-14T06:45:57.925Z,68.03
2022-08-14T06:48:29.779Z,67.67
2022-08-14T06:51:00.687Z,67.95
2022-08-14T06:53:28.653Z,68.03
2022-08-14T06:56:01.023Z,67.98
2022-08-14T06:58:32.080Z,67.80
2022-08-14T07:01:26.723Z,68.16
2022-08-14T07:04:24.177Z,67.95
2022-08-14T07:06:55.636Z,68.18
2022-08-14T07:09:28.238Z,68.26
2022-08-14T07:12:09.762Z,68.11
2022-08-14T07:15:01.345Z,68.26
2022-08-14T07:17:31.915Z,68.30
2022-08-14T07:20:04.305Z,68.20
2022-08-14T07:22:33.103Z,68.58
2022-08-14T07:25:18.220Z,68.55
2022-08-14T07:27:47.916Z,68.28
2022-08-14T07:30:34.011Z,68.65
2022-08-14T07:33:03.175Z,68.43
2022-08-14T07:35:43.255Z,68.61
2022-08-14T07:38:24.475Z,68.67
2022-08-14T07:40:53.310Z,68.70
2022-08-14T07:43:23.056Z,68.68
2022-08-14T07:45:53.774Z,68.70
2022-08-14T07:48:25.008Z,68.75
2022-08-14T07:51:03.065Z,68.90
2022-08-14T07:53:40.489Z,68.94
2022-08-14T07:56:44.492Z,68.90
2022-08-14T07:58:58.942Z,68.62
2022-08-14T08:01:30.979Z,68.63
2022-08-14T08:04:00.426Z,68.79
2022-08-14T08:06:31.259Z,68.68
2022-08-14T08:09:02.826Z,69.02
2022-08-14T08:11:34.824Z,68.71
2022-08-14T08:14:10.830Z,69.13
2022-08-14T08:16:51.004Z,68.95
2022-08-14T08:19:19.572Z,68.99
2022-08-14T08:21:48.981Z,69.10
2022-08-14T08:24:18.684Z,69.06
2022-08-14T08:26:50.260Z,68.81
2022-08-14T08:29:22.539Z,69.05
2022-08-14T08:32:01.827Z,68.89
2022-08-14T08:34:45.406Z,69.35
2022-08-14T08:37:16.060Z,68.90
2022-08-14T08:40:01.973Z,69.34
2022-08-14T08:42:41.301Z,69.00
2022-08-14T08:45:12.473Z,69.03
2022-08-14T08:47:41.327Z,68.83
2022-08-14T08:50:23.142Z,69.13
2022-08-14T08:53:03.856Z,69.39
2022-08-14T08:55:35.897Z,69.16
2022-08-14T08:58:16.111Z,69.29
2022-08-14T09:00:50.108Z,69.32
2022-08-14T09:03:24.547Z,69.60
2022-08-14T09:05:54.858Z,69.12
2022-08-14T09:08:31.632Z,69.09
2022-08-14T09:11:19.930Z,69.19
2022-08-14T09:13:51.036Z,69.27
2022-08-14T09:16:23.664Z,69.19
2022-08-14T09:18:53.899Z,69.29
2022-08-14T09:21:24.009Z,69.21
2022-08-14T09:24:29.259Z,69.42
2022-08-14T09:26:49.283Z,69.06
2022-08-14T09:29:22.898Z,69.14
2022-08-14T09:31:57.378Z,69.13
2022-08-14T09:34:58.500Z,69.36
2022-08-14T09:37:40.167Z,69.40
2022-08-14T09:40:22.282Z,68.78
2022-08-14T09:42:59.656Z,68.52
2022-08-14T09:45:39.971Z,68.50
2022-08-14T09:48:30.041Z,68.85
2022-08-14T09:54:12.716Z,68.81
2022-08-14T09:56:31.135Z,68.54
2022-08-14T09:59:15.444Z,68.79
2022-08-14T10:01:46.269Z,68.80
2022-08-14T10:04:36.691Z,68.53
2022-08-14T10:07:10.133Z,68.52
2022-08-14T10:09:59.440Z,68.72
2022-08-14T10:12:50.057Z,68.82
2022-08-14T10:15:23.958Z,68.42
2022-08-14T10:18:04.001Z,68.68
2022-08-14T10:20:40.749Z,68.72
2022-08-14T10:23:22.152Z,68.86
2022-08-14T10:25:53.368Z,68.64
2022-08-14T10:29:03.865Z,68.92
2022-08-14T10:31:25.615Z,68.66
2022-08-14T10:34:03.315Z,68.77
2022-08-14T10:36:35.234Z,68.83
2022-08-14T10:39:17.085Z,68.93
2022-08-14T10:41:54.035Z,69.21
2022-08-14T10:44:29.888Z,69.25
2022-08-14T10:47:39.281Z,68.94
2022-08-14T10:49:59.809Z,69.07
2022-08-14T10:52:34.477Z,69.01
2022-08-14T10:55:14.188Z,69.03
2022-08-14T10:57:51.220Z,69.46
2022-08-14T11:00:30.445Z,69.60
2022-08-14T11:03:09.750Z,69.45
2022-08-14T11:05:43.907Z,69.69
2022-08-14T11:08:13.919Z,69.62
2022-08-14T11:10:45.799Z,69.38
2022-08-14T11:13:18.820Z,69.51
2022-08-14T11:15:49.235Z,69.45
2022-08-14T11:18:20.414Z,69.65
2022-08-14T11:20:59.876Z,69.84
2022-08-14T11:23:38.418Z,69.60
2022-08-14T11:26:10.478Z,69.86
2022-08-14T11:28:48.189Z,69.59
2022-08-14T11:31:24.824Z,69.82
2022-08-14T11:33:57.974Z,69.72
2022-08-14T11:36:56.964Z,69.82
2022-08-14T11:39:22.869Z,69.81
2022-08-14T11:42:55.354Z,69.92
2022-08-14T11:44:53.467Z,69.66
2022-08-14T11:47:25.844Z,70.02
2022-08-14T11:49:54.993Z,69.70
2022-08-14T11:52:22.950Z,69.82
2022-08-14T11:55:00.555Z,69.86
2022-08-14T11:57:30.928Z,69.79
2022-08-14T12:00:03.150Z,70.00
2022-08-14T12:03:01.251Z,69.97
2022-08-14T12:05:43.061Z,70.24
2022-08-14T12:08:13.458Z,70.19
2022-08-14T12:10:44.165Z,70.34
2022-08-14T12:13:17.554Z,70.16
2022-08-14T12:15:51.402Z,69.89
2022-08-14T12:18:31.596Z,69.84
2022-08-14T12:21:15.809Z,69.82
2022-08-14T12:23:51.155Z,69.76
2022-08-14T12:26:39.957Z,69.67
2022-08-14T12:29:12.996Z,69.83
2022-08-14T12:31:44.707Z,70.12
2022-08-14T12:34:20.412Z,69.90
2022-08-14T12:36:51.350Z,69.70
2022-08-14T12:39:21.057Z,70.03
2022-08-14T12:41:56.946Z,70.23
2022-08-14T12:44:31.392Z,69.92
2022-08-14T12:47:06.291Z,70.16
2022-08-14T12:49:35.707Z,70.26
2022-08-14T12:52:06.564Z,69.81
2022-08-14T12:54:54.734Z,69.90
2022-08-14T12:57:38.296Z,70.17
2022-08-14T13:00:22.838Z,70.26
2022-08-14T13:02:55.206Z,69.89
2022-08-14T13:05:28.372Z,70.25
2022-08-14T13:07:57.386Z,69.92
2022-08-14T13:10:46.571Z,70.19
2022-08-14T13:13:17.973Z,70.43
2022-08-14T13:15:48.246Z,69.95
2022-08-14T13:18:26.895Z,69.97
2022-08-14T13:21:01.198Z,70.04
2022-08-14T13:23:36.194Z,69.91
2022-08-14T13:26:05.000Z,70.23
2022-08-14T13:28:41.265Z,70.28
2022-08-14T13:31:29.922Z,70.45
2022-08-14T13:34:00.265Z,70.23
2022-08-14T13:36:51.628Z,70.19
2022-08-14T13:39:20.606Z,70.45
2022-08-14T13:41:55.723Z,70.43
2022-08-14T13:44:28.779Z,70.13
2022-08-14T13:46:58.391Z,70.37
2022-08-14T13:49:29.043Z,70.30
2022-08-14T13:51:59.808Z,70.24
2022-08-14T13:54:32.983Z,70.36
2022-08-14T13:57:03.902Z,70.28
2022-08-14T13:59:38.016Z,70.39
2022-08-14T14:02:09.118Z,70.26
2022-08-14T14:04:42.590Z,70.42
2022-08-14T14:07:18.071Z,70.13
2022-08-14T14:09:52.523Z,70.15
2022-08-14T14:12:37.768Z,70.24
2022-08-14T14:15:11.634Z,70.40
2022-08-14T14:17:40.792Z,70.44
2022-08-14T14:20:35.972Z,70.23
2022-08-14T14:23:09.472Z,70.26
2022-08-14T14:25:46.123Z,70.54
2022-08-14T14:28:24.328Z,70.48
2022-08-14T14:30:57.385Z,70.32
2022-08-14T14:33:49.000Z,70.63
2022-08-14T14:36:21.000Z,70.39
2022-08-14T14:38:54.575Z,70.68
2022-08-14T14:41:24.018Z,70.51
2022-08-14T14:43:54.311Z,70.47
2022-08-14T14:46:36.254Z,70.45
2022-08-14T14:49:07.861Z,70.47
2022-08-14T14:51:41.843Z,70.64
2022-08-14T14:54:13.552Z,70.38
2022-08-14T14:56:50.652Z,70.65
2022-08-14T14:59:21.846Z,70.36
2022-08-14T15:01:55.844Z,70.22
2022-08-14T15:04:26.064Z,70.58
2022-08-14T15:06:54.514Z,70.23
2022-08-14T15:09:23.972Z,70.60
2022-08-14T15:11:51.895Z,70.42
2022-08-14T15:14:55.785Z,70.59
2022-08-14T15:17:09.187Z,70.41
2022-08-14T15:19:38.561Z,70.22
2022-08-14T15:22:10.583Z,70.52
2022-08-14T15:24:40.314Z,70.33
2022-08-14T15:27:09.367Z,70.27
2022-08-14T15:29:42.967Z,70.19
2022-08-14T15:32:11.402Z,70.24
2022-08-14T15:34:50.880Z,70.31
2022-08-14T15:37:20.132Z,70.49
2022-08-14T15:39:50.311Z,70.38
2022-08-14T15:42:23.073Z,70.29
2022-08-14T15:44:58.246Z,70.13
2022-08-14T15:47:31.459Z,70.08
2022-08-14T15:50:01.029Z,70.15
2022-08-14T15:52:34.877Z,70.43
2022-08-14T15:55:08.847Z,70.25
2022-08-14T15:57:37.256Z,70.21
2022-08-14T16:00:43.684Z,70.37
2022-08-14T16:03:16.686Z,70.46
2022-08-14T16:05:45.971Z,70.01
2022-08-14T16:08:27.022Z,70.27
2022-08-14T16:11:00.947Z,69.92
2022-08-14T16:13:39.128Z,69.96
2022-08-14T16:16:47.093Z,70.26
2022-08-14T16:18:58.932Z,70.19
2022-08-14T16:21:31.411Z,70.08
2022-08-14T16:24:01.790Z,70.15
2022-08-14T16:26:33.148Z,69.99
2022-08-14T16:29:06.464Z,70.20
2022-08-14T16:31:36.754Z,70.23
2022-08-14T16:34:44.676Z,69.84
2022-08-14T16:36:54.492Z,70.05
2022-08-14T16:39:24.360Z,69.75
2022-08-14T16:41:53.713Z,69.79
2022-08-14T16:44:33.745Z,69.55
2022-08-14T16:47:05.865Z,70.05
2022-08-14T16:50:04.805Z,70.04
2022-08-14T16:52:26.248Z,69.89
2022-08-14T16:55:14.239Z,69.94
2022-08-14T16:57:51.967Z,69.93
2022-08-14T17:00:32.956Z,69.55
2022-08-14T17:03:12.343Z,69.61
2022-08-14T17:05:43.447Z,69.61
2022-08-14T17:08:28.412Z,69.42
2022-08-14T17:11:10.656Z,69.29
2022-08-14T17:13:58.677Z,69.29
2022-08-14T17:16:33.192Z,69.25
2022-08-14T17:19:05.710Z,69.26
2022-08-14T17:21:40.949Z,69.45
2022-08-14T17:24:56.699Z,69.33
2022-08-14T17:27:04.150Z,69.03
2022-08-14T17:29:54.787Z,69.36
2022-08-14T17:32:29.909Z,69.00
2022-08-14T17:35:16.423Z,68.83
2022-08-14T17:37:55.962Z,69.03
2022-08-14T17:40:30.801Z,68.83
2022-08-14T17:43:02.065Z,68.90
2022-08-14T17:45:47.031Z,68.69
2022-08-14T17:49:10.772Z,68.77
2022-08-14T17:51:23.773Z,68.64
2022-08-14T17:54:01.440Z,68.73
2022-08-14T17:56:36.198Z,68.55
2022-08-14T17:59:07.445Z,68.45
2022-08-14T18:01:45.787Z,68.96
2022-08-14T18:04:24.516Z,68.65
2022-08-14T18:07:08.996Z,68.86
2022-08-14T18:09:58.902Z,68.59
2022-08-14T18:12:36.519Z,68.83
2022-08-14T18:15:16.669Z,68.76
2022-08-14T18:17:53.317Z,68.73
2022-08-14T18:21:40.263Z,68.69
2022-08-14T18:23:14.553Z,68.79
2022-08-14T18:25:49.401Z,68.46
2022-08-14T18:28:51.061Z,68.80
2022-08-14T18:31:43.763Z,68.53
2022-08-14T18:34:31.888Z,68.58
2022-08-14T18:37:14.269Z,68.31
2022-08-14T18:40:02.267Z,68.58
2022-08-14T18:42:44.516Z,68.32
2022-08-14T18:45:18.747Z,68.82
2022-08-14T18:48:14.314Z,68.84
2022-08-14T18:50:52.436Z,68.85
2022-08-14T18:53:24.526Z,68.63
2022-08-14T18:55:59.791Z,68.85
2022-08-14T18:58:34.212Z,68.90
2022-08-14T19:01:04.573Z,68.47
2022-08-14T19:03:56.173Z,68.43
2022-08-14T19:06:50.157Z,68.46
2022-08-14T19:09:57.938Z,68.78
2022-08-14T19:12:58.559Z,68.44
2022-08-14T19:15:31.211Z,68.51
2022-08-14T19:18:10.569Z,68.84
2022-08-14T19:20:47.697Z,68.42
2022-08-14T19:23:21.477Z,68.72
2022-08-14T19:26:01.325Z,68.75
2022-08-14T19:28:32.305Z,68.90
2022-08-14T19:31:42.421Z,68.83
2022-08-14T19:34:30.016Z,68.71
2022-08-14T19:37:06.733Z,68.73
2022-08-14T19:39:54.366Z,69.01
2022-08-14T19:42:28.553Z,68.71
2022-08-14T19:44:59.037Z,68.85
2022-08-14T19:47:40.984Z,68.67
2022-08-14T19:50:40.336Z,69.06
2022-08-14T19:53:17.680Z,69.05
2022-08-14T19:55:59.412Z,68.81
2022-08-14T19:58:55.191Z,68.81
2022-08-14T20:01:27.234Z,68.57
2022-08-14T20:04:22.865Z,69.01
2022-08-14T20:07:04.327Z,68.86
2022-08-14T20:11:03.253Z,68.65
2022-08-14T20:12:36.435Z,68.74
2022-08-14T20:15:47.316Z,68.97
2022-08-14T20:18:45.880Z,69.01
2022-08-14T20:21:05.325Z,68.88
2022-08-14T20:23:38.207Z,69.21
2022-08-14T20:26:30.782Z,69.18
2022-08-14T20:29:04.596Z,68.89
2022-08-14T20:31:36.613Z,68.89
2022-08-14T20:34:24.413Z,69.15
2022-08-14T20:37:10.016Z,68.80
2022-08-14T20:39:54.614Z,69.26
2022-08-14T20:42:43.620Z,69.26
2022-08-14T20:45:20.084Z,69.09
2022-08-14T20:47:56.947Z,69.33
2022-08-14T20:50:28.858Z,69.11
2022-08-14T20:52:57.812Z,69.16
2022-08-14T20:55:29.397Z,69.07
2022-08-14T20:57:59.692Z,69.12
2022-08-14T21:00:51.900Z,68.82
2022-08-14T21:03:30.309Z,69.03
2022-08-14T21:06:01.735Z,68.95
2022-08-14T21:08:47.184Z,68.88
2022-08-14T21:11:19.354Z,68.94
2022-08-14T21:14:20.796Z,68.89
2022-08-14T21:16:40.976Z,69.25
2022-08-14T21:19:26.947Z,68.87
2022-08-14T21:21:55.714Z,69.18
2022-08-14T21:24:39.625Z,69.00
2022-08-14T21:27:19.677Z,69.03
2022-08-14T21:29:55.505Z,69.01
2022-08-14T21:32:35.839Z,68.89
2022-08-14T21:35:10.047Z,69.24
2022-08-14T21:37:43.788Z,68.87
2022-08-14T21:40:18.731Z,68.96
2022-08-14T21:43:01.646Z,69.06
2022-08-14T21:45:30.303Z,68.85
2022-08-14T21:48:10.679Z,69.25
2022-08-14T21:51:01.378Z,68.96
2022-08-14T21:53:32.926Z,69.07
2022-08-14T21:56:03.234Z,69.24
2022-08-14T21:58:53.112Z,69.06
2022-08-14T22:01:20.466Z,69.09
2022-08-14T22:03:55.147Z,69.06
2022-08-14T22:06:28.664Z,69.03
2022-08-14T22:08:58.390Z,69.29
2022-08-14T22:11:27.434Z,69.23
2022-08-14T22:14:02.126Z,68.94
2022-08-14T22:17:01.642Z,69.05
2022-08-14T22:19:47.279Z,68.95
2022-08-14T22:22:25.975Z,68.83
2022-08-14T22:25:00.405Z,68.90
2022-08-14T22:27:32.118Z,69.16
2022-08-14T22:30:02.137Z,69.35
2022-08-14T22:32:55.911Z,69.36
2022-08-14T22:35:23.494Z,69.11
2022-08-14T22:38:32.615Z,69.26
2022-08-14T22:41:03.809Z,69.26
2022-08-14T22:43:31.293Z,69.47
2022-08-14T22:46:02.452Z,69.06
2022-08-14T22:48:31.025Z,69.49
2022-08-14T22:50:59.373Z,69.32
2022-08-14T22:53:29.495Z,69.05
2022-08-14T22:55:58.002Z,69.09
2022-08-14T22:58:30.418Z,69.48
2022-08-14T23:01:01.525Z,69.31
2022-08-14T23:03:34.148Z,69.26
2022-08-14T23:07:02.398Z,69.28
2022-08-14T23:09:01.573Z,69.35
2022-08-14T23:11:46.909Z,69.25
2022-08-14T23:14:23.771Z,69.37
2022-08-14T23:16:57.177Z,69.35
2022-08-14T23:19:34.687Z,69.45
2022-08-14T23:22:05.286Z,69.10
2022-08-14T23:24:36.705Z,69.22
2022-08-14T23:27:26.962Z,69.01
2022-08-14T23:29:59.123Z,69.17
2022-08-14T23:32:30.161Z,68.96
2022-08-14T23:35:00.846Z,69.03
2022-08-14T23:37:29.939Z,69.24
2022-08-14T23:39:59.291Z,69.08
2022-08-14T23:42:39.977Z,69.24
2022-08-14T23:45:10.648Z,69.39
2022-08-14T23:47:51.927Z,69.26
2022-08-14T23:50:38.275Z,69.41
2022-08-14T23:53:27.871Z,69.56
2022-08-14T23:56:00.502Z,69.40
2022-08-14T23:58:37.081Z,69.12
